Time;durP1;ratioP1;P1;durP2;ratioP2;P2;SDS_P1;SDS_P2;PMS_P1;PMS_P2;Temp;Humidity;BMP_temperature;BMP_pressure;BME280_temperature;BME280_humidity;BME280_pressure;Samples;Min_cycle;Max_cycle;Signal;HPM_P1;HPM_P2
2023/05/04 00:01:50;;;;;;;0.20;0.20;;;6.70;99.90;;;;;;6184977;23;20099;-80
2023/05/04 00:04:16;;;;;;;1.13;0.38;;;6.80;99.90;;;;;;6183495;23;20056;-80
2023/05/04 00:06:42;;;;;;;0.85;0.68;;;6.70;99.90;;;;;;6133245;23;20021;-80
2023/05/04 00:09:12;;;;;;;0.65;0.45;;;6.80;99.90;;;;;;6184465;23;20475;-80
2023/05/04 00:11:38;;;;;;;0.40;0.40;;;6.60;99.90;;;;;;6158223;23;20020;-80
2023/05/04 00:14:03;;;;;;;0.75;0.45;;;6.60;99.90;;;;;;6158188;23;20017;-80
2023/05/04 00:16:29;;;;;;;0.03;0.03;;;6.50;99.90;;;;;;6184023;23;20503;-80
2023/05/04 00:18:55;;;;;;;2.23;0.40;;;6.50;99.90;;;;;;6184427;23;20025;-80
2023/05/04 00:21:20;;;;;;;0.63;0.17;;;6.50;99.90;;;;;;6159270;23;20021;-80
2023/05/04 00:23:46;;;;;;;1.10;0.40;;;6.50;99.90;;;;;;6135616;23;20017;-80
2023/05/04 00:26:12;;;;;;;0.47;0.27;;;6.40;99.90;;;;;;6134660;23;20025;-80
2023/05/04 00:28:37;;;;;;;0.60;0.40;;;6.40;99.90;;;;;;6185698;23;20446;-80
2023/05/04 00:31:03;;;;;;;0.40;0.23;;;6.40;99.90;;;;;;6159619;23;20017;-80
2023/05/04 00:33:29;;;;;;;0.60;0.30;;;6.40;99.90;;;;;;6185637;23;20024;-81
2023/05/04 00:35:55;;;;;;;0.63;0.40;;;6.40;99.90;;;;;;6160101;23;20453;-80
2023/05/04 00:38:20;;;;;;;0.37;0.20;;;6.30;99.90;;;;;;6185738;23;20017;-80
2023/05/04 00:40:46;;;;;;;0.30;0.23;;;6.30;99.90;;;;;;6184652;23;20092;-80
2023/05/04 00:43:12;;;;;;;0.40;0.23;;;6.30;99.90;;;;;;6159689;23;20090;-80
2023/05/04 00:45:38;;;;;;;0.27;0.27;;;6.30;99.90;;;;;;6159820;23;20017;-80
2023/05/04 00:48:05;;;;;;;;;;;6.30;99.90;;;;;;6186644;23;20017;-80
2023/05/04 00:50:31;;;;;;;0.35;0.28;;;6.30;99.90;;;;;;6159336;23;20400;-81
2023/05/04 00:53:00;;;;;;;0.20;0.17;;;6.20;99.90;;;;;;6159689;23;20092;-81
2023/05/04 00:55:26;;;;;;;1.02;0.22;;;6.20;99.90;;;;;;6158803;23;20013;-81
2023/05/04 00:57:52;;;;;;;0.83;0.83;;;6.20;99.90;;;;;;6185818;23;20040;-80
2023/05/04 01:00:18;;;;;;;1.70;0.63;;;6.20;99.90;;;;;;6134432;23;20025;-80
2023/05/04 01:02:43;;;;;;;0.20;0.20;;;6.10;99.90;;;;;;6159658;23;20040;-80
2023/05/04 01:05:11;;;;;;;1.37;0.40;;;6.10;99.90;;;;;;6159703;23;20111;-80
2023/05/04 01:08:00;;;;;;;0.17;0.10;;;6.20;99.90;;;;;;6185486;23;20056;-81
2023/05/04 01:10:36;;;;;;;0.30;0.20;;;6.10;99.90;;;;;;6185259;23;20377;-81
2023/05/04 01:13:15;;;;;;;1.20;0.40;;;6.10;99.90;;;;;;6186105;23;20075;-81
2023/05/04 01:15:41;;;;;;;0.55;0.40;;;6.10;99.90;;;;;;6185753;23;20027;-81
2023/05/04 01:18:08;;;;;;;0.75;0.22;;;6.10;99.90;;;;;;6159523;23;20021;-81
2023/05/04 01:20:34;;;;;;;0.40;0.30;;;6.00;99.90;;;;;;6185369;23;20021;-81
2023/05/04 01:23:00;;;;;;;0.60;0.60;;;6.00;99.90;;;;;;6135078;23;20098;-81
2023/05/04 01:25:57;;;;;;;0.30;0.25;;;6.00;99.90;;;;;;6158525;23;20021;-81
2023/05/04 01:28:42;;;;;;;0.47;0.22;;;6.00;99.90;;;;;;6133127;23;20013;-81
2023/05/04 01:31:12;;;;;;;0.98;0.93;;;5.90;99.90;;;;;;6159041;23;20067;-81
2023/05/04 01:33:39;;;;;;;0.77;0.50;;;5.90;99.90;;;;;;6134481;23;20552;-81
2023/05/04 01:36:06;;;;;;;2.08;0.73;;;5.90;99.90;;;;;;6159639;23;20021;-81
2023/05/04 01:38:32;;;;;;;0.13;0.13;;;5.90;99.90;;;;;;6185016;23;20017;-81
2023/05/04 01:40:57;;;;;;;2.80;0.67;;;5.90;99.90;;;;;;6185463;23;20079;-81
2023/05/04 01:43:23;;;;;;;0.27;0.27;;;5.90;99.90;;;;;;6159426;23;20017;-81
2023/05/04 01:45:49;;;;;;;1.77;0.60;;;5.80;99.90;;;;;;6159993;23;20450;-81
2023/05/04 01:48:14;;;;;;;1.20;0.50;;;5.80;99.90;;;;;;6186323;23;20021;-81
2023/05/04 01:50:40;;;;;;;1.73;0.37;;;5.80;99.90;;;;;;6159595;23;20020;-81
2023/05/04 01:53:06;;;;;;;0.33;0.33;;;5.80;99.90;;;;;;6184876;23;20025;-81
2023/05/04 01:55:31;;;;;;;0.83;0.20;;;5.80;99.90;;;;;;6134559;23;20122;-81
2023/05/04 01:57:57;;;;;;;0.20;0.20;;;5.80;99.90;;;;;;6185778;23;20101;-81
2023/05/04 02:00:23;;;;;;;0.77;0.70;;;5.80;99.90;;;;;;6185662;23;20377;-81
2023/05/04 02:02:48;;;;;;;1.10;0.70;;;5.80;99.90;;;;;;6184543;23;20021;-81
2023/05/04 02:05:14;;;;;;;1.13;0.37;;;6.00;99.90;;;;;;6159605;23;20021;-80
2023/05/04 02:07:40;;;;;;;2.17;0.57;;;5.80;99.90;;;;;;6185492;23;20036;-81
2023/05/04 02:10:07;;;;;;;0.37;0.33;;;5.80;99.90;;;;;;6159938;23;20244;-80
2023/05/04 02:12:33;;;;;;;0.20;0.20;;;5.80;99.90;;;;;;6158659;23;20445;-81
2023/05/04 02:14:59;;;;;;;0.37;0.37;;;5.80;99.90;;;;;;6185302;23;20017;-81
2023/05/04 02:17:24;;;;;;;0.20;0.20;;;5.80;99.90;;;;;;6158515;23;20464;-81
2023/05/04 02:19:50;;;;;;;0.93;0.50;;;5.70;99.90;;;;;;6159012;23;20021;-80
2023/05/04 02:22:16;;;;;;;0.67;0.37;;;5.80;99.90;;;;;;6134399;23;20062;-81
2023/05/04 02:24:43;;;;;;;1.23;0.63;;;5.80;99.90;;;;;;6184445;23;20534;-81
2023/05/04 02:27:08;;;;;;;0.10;0.10;;;5.80;99.90;;;;;;6158004;23;20028;-81
2023/05/04 02:29:34;;;;;;;2.03;0.20;;;5.80;99.90;;;;;;6158025;23;20013;-81
2023/05/04 02:32:00;;;;;;;0.60;0.53;;;5.70;99.90;;;;;;6185125;23;20442;-81
2023/05/04 02:34:26;;;;;;;0.33;0.33;;;5.70;99.90;;;;;;6184969;23;20017;-81
2023/05/04 02:36:51;;;;;;;7.60;0.93;;;5.70;99.90;;;;;;6109554;23;20096;-81
2023/05/04 02:39:17;;;;;;;0.47;0.27;;;5.70;99.90;;;;;;6158824;23;20111;-81
2023/05/04 02:41:43;;;;;;;2.70;0.30;;;5.70;99.90;;;;;;6158049;23;20021;-81
2023/05/04 02:44:08;;;;;;;0.37;0.37;;;5.70;99.90;;;;;;6184138;23;20079;-81
2023/05/04 02:46:34;;;;;;;0.57;0.50;;;5.70;99.90;;;;;;6133333;23;20017;-81
2023/05/04 02:49:00;;;;;;;1.13;0.57;;;5.70;99.90;;;;;;6134284;23;20025;-81
2023/05/04 02:51:25;;;;;;;1.70;1.20;;;5.60;99.90;;;;;;6158878;23;20043;-80
2023/05/04 02:53:51;;;;;;;0.13;0.13;;;5.70;99.90;;;;;;6133757;23;20066;-81
2023/05/04 02:56:16;;;;;;;1.77;0.60;;;5.60;99.90;;;;;;6158714;23;20024;-81
2023/05/04 02:58:42;;;;;;;0.83;0.60;;;5.70;99.90;;;;;;6133754;23;20096;-81
2023/05/04 03:01:08;;;;;;;0.40;0.30;;;5.60;99.90;;;;;;6158798;23;20040;-81
2023/05/04 03:03:34;;;;;;;0.53;0.50;;;5.60;99.90;;;;;;6158165;23;20021;-81
2023/05/04 03:05:59;;;;;;;0.67;0.63;;;5.60;99.90;;;;;;6185004;23;20555;-81
2023/05/04 03:08:25;;;;;;;1.60;1.07;;;5.60;99.90;;;;;;6184693;23;20040;-81
2023/05/04 03:10:51;;;;;;;0.27;0.27;;;5.60;99.90;;;;;;6157919;23;20013;-81
2023/05/04 03:13:17;;;;;;;0.73;0.47;;;5.60;99.90;;;;;;6158389;23;20021;-81
2023/05/04 03:15:42;;;;;;;3.00;0.53;;;5.60;99.90;;;;;;6158146;23;20023;-81
2023/05/04 03:18:08;;;;;;;0.20;0.20;;;5.60;99.90;;;;;;6184610;23;20028;-81
2023/05/04 03:20:34;;;;;;;0.87;0.40;;;5.60;99.90;;;;;;6158110;23;20452;-81
2023/05/04 03:22:59;;;;;;;3.10;1.27;;;5.60;99.90;;;;;;6182693;23;20052;-81
2023/05/04 03:25:25;;;;;;;0.47;0.47;;;5.70;99.90;;;;;;6184637;23;20021;-80
2023/05/04 03:27:51;;;;;;;0.30;0.17;;;5.50;99.90;;;;;;6183939;23;20078;-81
2023/05/04 03:30:17;;;;;;;1.63;0.80;;;5.50;99.90;;;;;;6184648;23;20092;-81
2023/05/04 03:32:43;;;;;;;0.90;0.90;;;5.50;99.90;;;;;;6157839;23;20342;-81
2023/05/04 03:35:09;;;;;;;0.60;0.45;;;6.10;99.90;;;;;;6158500;23;20017;-81
2023/05/04 03:37:34;;;;;;;0.40;0.30;;;5.60;99.90;;;;;;6184211;23;20145;-81
2023/05/04 03:40:00;;;;;;;2.33;0.63;;;5.60;99.90;;;;;;6158488;23;20067;-81
2023/05/04 03:42:26;;;;;;;0.93;0.93;;;5.60;99.90;;;;;;6184751;23;20020;-81
2023/05/04 03:44:52;;;;;;;1.10;0.70;;;5.60;99.90;;;;;;6157814;23;20088;-81
2023/05/04 03:47:17;;;;;;;0.87;0.50;;;5.60;99.90;;;;;;6134268;23;20021;-81
2023/05/04 03:49:43;;;;;;;0.43;0.43;;;5.50;99.90;;;;;;6184352;23;20021;-81
2023/05/04 03:52:09;;;;;;;0.80;0.60;;;5.60;99.90;;;;;;6185161;23;20092;-81
2023/05/04 03:54:34;;;;;;;4.30;0.97;;;5.50;99.90;;;;;;6158660;23;20393;-80
2023/05/04 03:57:01;;;;;;;1.03;0.47;;;5.60;99.90;;;;;;6184665;23;20017;-81
2023/05/04 03:59:26;;;;;;;1.20;0.77;;;5.60;99.90;;;;;;6184226;23;20052;-81
2023/05/04 04:01:52;;;;;;;0.97;0.40;;;5.60;99.90;;;;;;6113059;23;20024;-80
2023/05/04 04:04:18;;;;;;;0.73;0.73;;;5.60;99.90;;;;;;6157798;23;20020;-79
2023/05/04 04:06:43;;;;;;;1.70;0.67;;;5.60;99.90;;;;;;6158319;23;20020;-79
2023/05/04 04:09:09;;;;;;;1.47;0.70;;;5.60;99.90;;;;;;6185079;23;20330;-78
2023/05/04 04:11:35;;;;;;;0.40;0.40;;;5.70;99.90;;;;;;6134359;23;20482;-78
2023/05/04 04:14:01;;;;;;;0.30;0.30;;;5.60;99.90;;;;;;6157935;23;20025;-78
2023/05/04 04:16:26;;;;;;;1.10;0.47;;;5.60;99.90;;;;;;6158001;23;20311;-80
2023/05/04 04:18:52;;;;;;;0.33;0.33;;;5.60;99.90;;;;;;6184004;23;20032;-79
2023/05/04 04:21:18;;;;;;;0.67;0.40;;;5.60;99.90;;;;;;6158164;23;20036;-79
2023/05/04 04:23:43;;;;;;;0.50;0.50;;;5.60;99.90;;;;;;6182541;23;20017;-78
2023/05/04 04:26:09;;;;;;;0.30;0.30;;;5.60;99.90;;;;;;6184344;23;20109;-80
2023/05/04 04:28:35;;;;;;;0.28;0.25;;;5.60;99.90;;;;;;6184372;23;20017;-82
2023/05/04 04:31:02;;;;;;;1.13;0.77;;;5.70;99.90;;;;;;6183276;23;20414;-81
2023/05/04 04:33:28;;;;;;;;;;;5.70;99.90;;;;;;6184595;23;20468;-80
2023/05/04 04:35:53;;;;;;;0.52;0.50;;;5.70;99.90;;;;;;6184276;23;19916;-82
2023/05/04 04:38:20;;;;;;;0.63;0.47;;;5.70;99.90;;;;;;6158497;23;20091;-83
2023/05/04 04:40:46;;;;;;;1.25;0.57;;;5.70;99.90;;;;;;6132897;23;20458;-80
2023/05/04 04:43:11;;;;;;;1.47;0.60;;;5.70;99.90;;;;;;6157537;23;20059;-82
2023/05/04 04:45:40;;;;;;;0.93;0.43;;;5.70;99.90;;;;;;6156321;23;20256;-81
2023/05/04 04:48:05;;;;;;;0.52;0.32;;;5.70;99.90;;;;;;6182924;23;20021;-81
2023/05/04 04:50:31;;;;;;;1.13;0.57;;;5.70;99.90;;;;;;6184100;23;20024;-81
2023/05/04 04:52:57;;;;;;;0.60;0.40;;;5.70;99.90;;;;;;6157368;23;20505;-81
2023/05/04 04:55:24;;;;;;;1.07;0.60;;;5.70;99.90;;;;;;6184236;23;20048;-81
2023/05/04 04:57:51;;;;;;;0.43;0.43;;;5.70;99.90;;;;;;6158157;23;20319;-81
2023/05/04 05:00:18;;;;;;;0.82;0.73;;;5.80;99.90;;;;;;6133673;23;20021;-81
2023/05/04 05:02:44;;;;;;;1.75;0.40;;;5.80;99.90;;;;;;6157740;23;20453;-81
2023/05/04 05:05:11;;;;;;;1.67;1.05;;;5.90;99.90;;;;;;6183530;23;20032;-81
2023/05/04 05:07:37;;;;;;;2.13;0.63;;;5.90;99.90;;;;;;6185138;23;20021;-81
2023/05/04 05:10:03;;;;;;;0.40;0.40;;;6.00;99.90;;;;;;6159222;23;20158;-81
2023/05/04 05:12:29;;;;;;;1.02;0.47;;;6.00;99.90;;;;;;6134734;23;20028;-81
2023/05/04 05:14:55;;;;;;;0.67;0.27;;;6.10;99.90;;;;;;6185464;23;20021;-81
2023/05/04 05:17:21;;;;;;;3.73;0.53;;;6.10;99.90;;;;;;6159587;23;20055;-81
2023/05/04 05:19:48;;;;;;;0.73;0.73;;;6.20;99.90;;;;;;6185798;23;20028;-81
2023/05/04 05:22:13;;;;;;;0.57;0.57;;;6.30;99.90;;;;;;6185902;23;20248;-81
2023/05/04 05:24:39;;;;;;;0.60;0.30;;;5.40;99.90;;;;;;6134206;23;20048;-81
2023/05/04 05:27:05;;;;;;;1.90;0.80;;;6.30;99.90;;;;;;6162043;23;20387;-81
2023/05/04 05:29:31;;;;;;;1.23;0.50;;;6.40;99.90;;;;;;6134845;23;20244;-82
2023/05/04 05:31:57;;;;;;;1.60;0.70;;;6.40;99.90;;;;;;6159182;23;20021;-81
2023/05/04 05:34:22;;;;;;;0.23;0.23;;;6.40;99.90;;;;;;6186240;23;20036;-81
2023/05/04 05:36:48;;;;;;;1.60;0.80;;;6.50;99.90;;;;;;6184368;23;20021;-81
2023/05/04 05:39:14;;;;;;;0.90;0.73;;;6.60;99.90;;;;;;6134114;23;20020;-81
2023/05/04 05:41:40;;;;;;;1.10;0.70;;;6.70;99.90;;;;;;6163215;23;20021;-81
2023/05/04 05:44:06;;;;;;;2.55;0.75;;;6.70;99.90;;;;;;6185602;23;20020;-81
2023/05/04 05:46:32;;;;;;;0.87;0.40;;;6.70;99.90;;;;;;6159852;23;20017;-81
2023/05/04 05:48:58;;;;;;;1.13;0.70;;;6.80;99.90;;;;;;6134728;23;20017;-81
2023/05/04 05:51:24;;;;;;;1.20;0.47;;;6.90;99.90;;;;;;6185795;23;20044;-81
2023/05/04 05:53:50;;;;;;;0.37;0.37;;;7.00;99.90;;;;;;6184275;23;20028;-81
2023/05/04 05:56:16;;;;;;;1.43;0.73;;;7.00;99.90;;;;;;6159264;23;20024;-81
2023/05/04 05:58:42;;;;;;;0.50;0.50;;;7.10;99.90;;;;;;6134945;23;20013;-81
2023/05/04 06:01:08;;;;;;;1.80;0.60;;;7.10;99.90;;;;;;6159300;23;20024;-81
2023/05/04 06:03:33;;;;;;;0.40;0.40;;;7.20;99.90;;;;;;6159442;23;20256;-81
2023/05/04 06:05:59;;;;;;;0.97;0.80;;;7.40;99.90;;;;;;6159499;23;20346;-81
2023/05/04 06:08:25;;;;;;;1.20;0.83;;;7.60;99.90;;;;;;6159892;23;20036;-81
2023/05/04 06:10:51;;;;;;;1.67;0.70;;;7.70;99.90;;;;;;6185911;23;20021;-81
2023/05/04 06:13:17;;;;;;;0.80;0.45;;;7.80;99.90;;;;;;6159107;23;20032;-81
2023/05/04 06:15:53;;;;;;;1.70;0.70;;;7.90;99.90;;;;;;6186226;23;20052;-81
2023/05/04 06:18:19;;;;;;;1.30;1.00;;;8.00;99.90;;;;;;6159089;23;20027;-81
2023/05/04 06:20:45;;;;;;;0.90;0.82;;;8.10;99.90;;;;;;6160050;23;20128;-81
2023/05/04 06:23:10;;;;;;;1.33;0.53;;;8.10;99.90;;;;;;6185569;23;20410;-82
2023/05/04 06:25:36;;;;;;;1.30;0.50;;;8.20;99.90;;;;;;6184573;23;20025;-81
2023/05/04 06:28:02;;;;;;;1.67;0.80;;;8.20;99.90;;;;;;6159564;23;20021;-81
2023/05/04 06:30:28;;;;;;;1.63;0.70;;;8.30;99.90;;;;;;6110764;23;20051;-81
2023/05/04 06:32:54;;;;;;;2.43;0.77;;;8.40;99.90;;;;;;6185988;23;20057;-81
2023/05/04 06:35:19;;;;;;;0.73;0.60;;;8.50;99.90;;;;;;6184889;23;20105;-81
2023/05/04 06:37:45;;;;;;;1.27;0.70;;;8.60;99.90;;;;;;6159243;23;20101;-81
2023/05/04 06:40:11;;;;;;;1.97;0.63;;;8.80;99.90;;;;;;6185145;23;20460;-81
2023/05/04 06:42:37;;;;;;;0.55;0.40;;;8.90;99.90;;;;;;6159235;23;20331;-81
2023/05/04 06:45:03;;;;;;;0.73;0.47;;;9.00;99.90;;;;;;6184661;23;20066;-81
2023/05/04 06:47:28;;;;;;;0.40;0.30;;;9.20;99.90;;;;;;6185145;23;20059;-81
2023/05/04 06:49:54;;;;;;;1.20;0.70;;;9.30;99.90;;;;;;6184609;23;20021;-81
2023/05/04 06:52:20;;;;;;;0.30;0.30;;;9.40;99.90;;;;;;6158261;23;20020;-81
2023/05/04 06:54:46;;;;;;;0.95;0.65;;;9.50;99.90;;;;;;6185243;23;20017;-81
2023/05/04 06:57:12;;;;;;;1.43;0.60;;;9.60;99.90;;;;;;6184670;23;20021;-80
2023/05/04 06:59:37;;;;;;;0.80;0.35;;;9.70;99.90;;;;;;6158804;23;20021;-81
2023/05/04 07:02:03;;;;;;;0.87;0.63;;;9.90;99.90;;;;;;6158369;23;20021;-80
2023/05/04 07:04:29;;;;;;;1.27;0.53;;;10.00;99.90;;;;;;6184242;23;20166;-80
2023/05/04 07:06:55;;;;;;;0.77;0.77;;;10.20;99.90;;;;;;6158889;23;20249;-82
2023/05/04 07:09:21;;;;;;;0.70;0.50;;;10.40;99.90;;;;;;6133932;23;20446;-82
2023/05/04 07:11:47;;;;;;;1.00;0.90;;;10.70;99.90;;;;;;6184967;23;20021;-81
2023/05/04 07:14:14;;;;;;;0.77;0.50;;;10.80;99.90;;;;;;6158116;23;20082;-81
2023/05/04 07:16:40;;;;;;;0.50;0.50;;;10.90;99.90;;;;;;6158498;23;20036;-82
2023/05/04 07:19:05;;;;;;;1.33;0.77;;;11.10;99.90;;;;;;6157810;23;20013;-81
2023/05/04 07:21:32;;;;;;;0.63;0.63;;;11.20;99.90;;;;;;6184548;23;20121;-81
2023/05/04 07:23:57;;;;;;;1.45;1.33;;;11.20;99.90;;;;;;6158618;23;20044;-81
2023/05/04 07:26:23;;;;;;;0.90;0.70;;;11.30;99.90;;;;;;6184122;23;20389;-81
2023/05/04 07:28:49;;;;;;;0.33;0.33;;;11.40;99.90;;;;;;6184599;23;20469;-80
2023/05/04 07:31:15;;;;;;;1.13;1.02;;;11.50;99.90;;;;;;6184222;23;20237;-81
2023/05/04 07:33:41;;;;;;;0.87;0.70;;;11.60;99.90;;;;;;6134018;23;20088;-81
2023/05/04 07:36:07;;;;;;;0.40;0.40;;;11.70;99.90;;;;;;6157896;23;20024;-83
2023/05/04 07:38:36;;;;;;;0.63;0.45;;;11.70;99.90;;;;;;6135346;23;20021;-81
2023/05/04 07:41:01;;;;;;;1.40;0.70;;;11.80;99.90;;;;;;6158614;23;20028;-81
2023/05/04 07:43:27;;;;;;;2.30;1.10;;;12.00;99.90;;;;;;6184293;23;20036;-81
2023/05/04 07:45:53;;;;;;;1.23;0.60;;;12.10;99.90;;;;;;6158279;23;20021;-81
2023/05/04 07:48:19;;;;;;;1.37;0.83;;;12.30;99.90;;;;;;6132923;23;20263;-79
2023/05/04 07:50:45;;;;;;;0.98;0.52;;;12.40;99.90;;;;;;6184598;23;20394;-79
2023/05/04 07:53:11;;;;;;;1.25;0.60;;;12.50;99.90;;;;;;6184425;23;20017;-79
2023/05/04 07:55:37;;;;;;;1.17;0.40;;;12.70;99.90;;;;;;6185194;23;20052;-81
2023/05/04 07:58:03;;;;;;;0.75;0.50;;;12.80;99.90;;;;;;6159067;23;20088;-81
2023/05/04 08:00:29;;;;;;;0.75;0.50;;;13.00;99.90;;;;;;6134092;23;20649;-81
2023/05/04 08:02:55;;;;;;;0.65;0.50;;;13.10;99.90;;;;;;6134379;23;20021;-81
2023/05/04 08:05:21;;;;;;;1.35;0.98;;;13.30;99.90;;;;;;6184210;23;20021;-81
2023/05/04 08:07:47;;;;;;;0.75;0.43;;;13.30;99.90;;;;;;6158958;23;20028;-81
2023/05/04 08:10:13;;;;;;;0.88;0.50;;;13.60;99.90;;;;;;6133923;23;20461;-81
2023/05/04 08:12:39;;;;;;;2.13;0.90;;;13.70;99.90;;;;;;6185166;23;20017;-77
2023/05/04 08:15:06;;;;;;;0.50;0.50;;;13.80;99.90;;;;;;6185244;23;20013;-80
2023/05/04 08:17:33;;;;;;;;;;;14.00;99.90;;;;;;6185271;23;20043;-81
2023/05/04 08:20:00;;;;;;;0.40;0.40;;;14.20;99.90;;;;;;6185271;23;19916;-80
2023/05/04 08:22:26;;;;;;;0.50;0.50;;;14.40;99.90;;;;;;6133618;23;20021;-79
2023/05/04 08:24:57;;;;;;;0.65;0.65;;;14.50;99.90;;;;;;6139466;23;20333;-81
2023/05/04 08:27:23;;;;;;;0.98;0.55;;;14.70;99.90;;;;;;6184456;23;20017;-81
2023/05/04 08:29:48;;;;;;;0.73;0.50;;;15.00;99.90;;;;;;6184994;23;20474;-80
2023/05/04 08:32:14;;;;;;;0.82;0.50;;;15.10;99.90;;;;;;6184880;23;20052;-80
2023/05/04 08:34:40;;;;;;;1.08;0.55;;;15.20;99.90;;;;;;6182962;23;20021;-80
2023/05/04 08:37:05;;;;;;;0.60;0.60;;;15.30;99.90;;;;;;6184946;23;20512;-79
2023/05/04 08:39:31;;;;;;;1.35;0.65;;;15.40;99.90;;;;;;6184244;23;20017;-79
2023/05/04 08:41:57;;;;;;;1.35;0.45;;;15.50;99.90;;;;;;6185310;23;20459;-83
2023/05/04 08:44:23;;;;;;;0.55;0.50;;;15.60;99.90;;;;;;6135434;23;20017;-81
2023/05/04 08:46:52;;;;;;;1.08;0.50;;;15.60;99.90;;;;;;6186926;23;20024;-81
2023/05/04 08:49:21;;;;;;;0.80;0.68;;;15.80;99.90;;;;;;6186656;23;20020;-81
2023/05/04 08:51:51;;;;;;;0.35;0.35;;;15.90;99.90;;;;;;6135165;23;20036;-81
2023/05/04 08:54:17;;;;;;;1.75;0.90;;;16.00;99.90;;;;;;6186994;23;20013;-81
2023/05/04 08:56:48;;;;;;;1.30;0.60;;;16.30;99.90;;;;;;6186874;23;20017;-81
2023/05/04 08:59:19;;;;;;;0.65;0.60;;;16.40;99.90;;;;;;6160352;23;20020;-81
2023/05/04 09:01:57;;;;;;;0.88;0.47;;;16.50;99.90;;;;;;6187124;23;20048;-81
2023/05/04 09:04:23;;;;;;;1.40;0.60;;;16.50;99.90;;;;;;6186499;23;20012;-81
2023/05/04 09:06:50;;;;;;;0.60;0.60;;;16.50;99.90;;;;;;6186469;23;20075;-81
2023/05/04 09:09:16;;;;;;;0.50;0.50;;;16.50;99.90;;;;;;6186857;23;20028;-81
2023/05/04 09:11:43;;;;;;;0.55;0.55;;;16.60;99.90;;;;;;6185992;23;20013;-81
2023/05/04 09:14:08;;;;;;;1.15;0.65;;;16.60;99.90;;;;;;6160566;23;20321;-81
2023/05/04 09:16:37;;;;;;;0.73;0.68;;;16.70;99.90;;;;;;6186245;23;20092;-78
2023/05/04 09:19:14;;;;;;;1.13;0.65;;;16.80;99.90;;;;;;6185175;23;20013;-78
2023/05/04 09:21:40;;;;;;;0.50;0.35;;;17.00;99.90;;;;;;6159826;23;20297;-78
2023/05/04 09:24:06;;;;;;;0.32;0.32;;;17.30;99.90;;;;;;6160282;23;20139;-79
2023/05/04 09:26:33;;;;;;;1.20;0.65;;;17.40;99.90;;;;;;6186356;23;20013;-79
2023/05/04 09:29:14;;;;;;;1.08;0.82;;;17.50;99.90;;;;;;6160621;23;20013;-79
2023/05/04 09:31:44;;;;;;;0.40;0.40;;;17.60;99.90;;;;;;6159881;23;20024;-79
2023/05/04 09:34:10;;;;;;;0.40;0.40;;;17.60;99.90;;;;;;6135601;23;20013;-79
2023/05/04 09:36:36;;;;;;;0.93;0.50;;;17.70;99.90;;;;;;6186239;23;20013;-79
2023/05/04 09:39:12;;;;;;;0.30;0.25;;;17.60;99.90;;;;;;6160527;23;20017;-79
2023/05/04 09:41:39;;;;;;;0.55;0.50;;;17.70;99.90;;;;;;6185791;23;20084;-79
2023/05/04 09:44:05;;;;;;;;;;;17.80;99.90;;;;;;6160610;23;20036;-79
2023/05/04 09:46:31;;;;;;;0.40;0.40;;;17.90;99.90;;;;;;6186031;23;19959;-79
2023/05/04 09:48:57;;;;;;;0.38;0.38;;;18.10;99.90;;;;;;6186408;23;20017;-79
2023/05/04 09:51:24;;;;;;;;;;;18.30;99.90;;;;;;6186507;23;20437;-79
2023/05/04 09:53:51;;;;;;;0.68;0.52;;;18.30;99.90;;;;;;6185546;23;20171;-80
2023/05/04 09:56:28;;;;;;;0.90;0.40;;;18.50;99.90;;;;;;6186367;23;20024;-80
2023/05/04 09:58:57;;;;;;;0.82;0.55;;;18.60;99.90;;;;;;6160475;23;20426;-80
2023/05/04 10:01:28;;;;;;;0.68;0.60;;;18.70;99.90;;;;;;6160132;23;20024;-80
2023/05/04 10:03:54;;;;;;;0.35;0.30;;;18.70;99.90;;;;;;6186068;23;20009;-80
2023/05/04 10:06:22;;;;;;;1.08;0.47;;;18.70;99.90;;;;;;6159922;23;20067;-80
2023/05/04 10:08:49;;;;;;;1.60;0.70;;;18.60;99.90;;;;;;6185816;23;20013;-80
2023/05/04 10:11:19;;;;;;;0.65;0.50;;;18.70;99.90;;;;;;6160070;23;20032;-80
2023/05/04 10:13:46;;;;;;;0.73;0.47;;;18.70;99.90;;;;;;6185800;23;20017;-80
2023/05/04 10:16:29;;;;;;;0.50;0.50;;;18.90;99.90;;;;;;6186168;23;20068;-80
2023/05/04 10:19:21;;;;;;;0.73;0.60;;;18.90;99.70;;;;;;6159881;23;20013;-80
2023/05/04 10:22:11;;;;;;;0.40;0.40;;;19.20;99.50;;;;;;6185320;23;20017;-80
2023/05/04 10:25:13;;;;;;;0.60;0.40;;;19.50;99.90;;;;;;6185612;23;20071;-80
2023/05/04 10:28:15;;;;;;;0.65;0.57;;;19.70;99.90;;;;;;6185793;23;20036;-80
2023/05/04 10:30:41;;;;;;;0.40;0.30;;;19.50;98.40;;;;;;6114345;23;20516;-80
2023/05/04 10:33:07;;;;;;;0.50;0.50;;;19.30;99.90;;;;;;6186098;23;20044;-80
2023/05/04 10:35:33;;;;;;;0.30;0.30;;;19.30;99.90;;;;;;6159270;23;20092;-81
2023/05/04 10:37:59;;;;;;;0.47;0.30;;;19.30;99.90;;;;;;6186024;23;20017;-80
2023/05/04 10:40:34;;;;;;;;;;;19.50;99.90;;;;;;6160149;23;20017;-80
2023/05/04 10:43:00;;;;;;;1.13;0.50;;;19.50;96.20;;;;;;6186222;23;20022;-80
2023/05/04 10:45:37;;;;;;;0.70;0.40;;;19.70;99.90;;;;;;6159254;23;20027;-80
2023/05/04 10:48:06;;;;;;;1.17;0.57;;;20.00;98.70;;;;;;6159634;23;20044;-80
2023/05/04 10:51:01;;;;;;;0.68;0.68;;;20.10;99.90;;;;;;6185208;23;20016;-81
2023/05/04 10:53:32;;;;;;;0.60;0.30;;;20.20;96.00;;;;;;6134164;23;20072;-80
2023/05/04 10:55:58;;;;;;;0.45;0.45;;;20.30;97.00;;;;;;6186060;23;20023;-80
2023/05/04 10:58:27;;;;;;;1.00;0.75;;;20.20;99.90;;;;;;6159459;23;20100;-80
2023/05/04 11:00:53;;;;;;;0.28;0.28;;;20.30;95.50;;;;;;6185413;23;20013;-79
2023/05/04 11:03:21;;;;;;;1.38;0.50;;;20.40;99.60;;;;;;6159817;23;20017;-79
2023/05/04 11:05:53;;;;;;;0.65;0.40;;;20.40;97.90;;;;;;6158590;23;20017;-80
2023/05/04 11:08:29;;;;;;;0.70;0.65;;;20.40;97.10;;;;;;6185406;23;20513;-79
2023/05/04 11:11:06;;;;;;;0.50;0.50;;;20.60;95.80;;;;;;6159116;23;20092;-79
2023/05/04 11:13:45;;;;;;;0.50;0.50;;;20.60;94.10;;;;;;6159441;23;20088;-80
2023/05/04 11:16:11;;;;;;;0.60;0.60;;;20.60;93.40;;;;;;6158946;23;20069;-79
2023/05/04 11:18:37;;;;;;;1.13;0.32;;;20.70;96.00;;;;;;6183849;23;20013;-79
2023/05/04 11:21:03;;;;;;;0.55;0.47;;;20.70;94.40;;;;;;6185201;23;20092;-79
2023/05/04 11:23:29;;;;;;;2.40;1.13;;;20.70;96.30;;;;;;6185181;23;20051;-79
2023/05/04 11:25:55;;;;;;;;;;;20.70;94.00;;;;;;6159486;23;20021;-80
2023/05/04 11:28:35;;;;;;;0.63;0.63;;;20.80;91.60;;;;;;6159310;23;19919;-79
2023/05/04 11:31:13;;;;;;;0.22;0.22;;;20.80;92.60;;;;;;6184965;23;20017;-80
2023/05/04 11:33:53;;;;;;;0.35;0.32;;;20.80;92.80;;;;;;6185372;23;20010;-80
2023/05/04 11:36:20;;;;;;;0.40;0.40;;;21.00;92.00;;;;;;6185607;23;20016;-79
2023/05/04 11:38:47;;;;;;;0.40;0.40;;;21.10;93.90;;;;;;6185052;23;20075;-80
2023/05/04 11:41:12;;;;;;;;;;;21.10;94.30;;;;;;6159715;23;20088;-80
2023/05/04 11:43:41;;;;;;;1.10;0.55;;;21.10;90.30;;;;;;6185491;23;19963;-80
2023/05/04 11:46:07;;;;;;;0.28;0.20;;;21.10;92.20;;;;;;6158983;23;20009;-79
2023/05/04 11:48:34;;;;;;;0.98;0.60;;;21.00;92.40;;;;;;6185332;23;20021;-80
2023/05/04 11:51:01;;;;;;;0.73;0.40;;;20.80;92.70;;;;;;6185026;23;20206;-80
2023/05/04 11:53:38;;;;;;;0.40;0.40;;;21.00;92.40;;;;;;6184967;23;20499;-80
2023/05/04 11:56:07;;;;;;;1.00;0.80;;;21.10;91.20;;;;;;6184660;23;20017;-80
2023/05/04 11:58:32;;;;;;;0.55;0.40;;;21.20;92.50;;;;;;6185340;23;20016;-79
2023/05/04 12:00:58;;;;;;;1.00;0.50;;;21.20;92.50;;;;;;6158638;23;20013;-80
2023/05/04 12:03:26;;;;;;;0.40;0.40;;;21.20;91.60;;;;;;6185292;23;20009;-80
2023/05/04 12:05:54;;;;;;;0.88;0.52;;;21.00;90.50;;;;;;6185048;23;20020;-80
2023/05/04 12:08:34;;;;;;;1.40;0.52;;;20.90;91.40;;;;;;6134838;23;20017;-79
2023/05/04 12:11:15;;;;;;;0.68;0.52;;;20.80;90.00;;;;;;6184938;23;20084;-80
2023/05/04 12:13:42;;;;;;;0.82;0.45;;;21.00;87.30;;;;;;6185320;23;20016;-79
2023/05/04 12:16:10;;;;;;;0.40;0.40;;;21.20;90.40;;;;;;6185952;23;20318;-80
2023/05/04 12:18:36;;;;;;;0.47;0.40;;;21.50;90.00;;;;;;6136251;23;20034;-79
2023/05/04 12:21:16;;;;;;;;;;;21.60;90.60;;;;;;6187476;23;20044;-80
2023/05/04 12:23:43;;;;;;;0.40;0.40;;;21.80;85.50;;;;;;6160502;23;20265;-80
2023/05/04 12:26:09;;;;;;;0.38;0.30;;;21.90;88.90;;;;;;6160749;23;20429;-80
2023/05/04 12:28:35;;;;;;;;;;;22.00;85.60;;;;;;6160962;23;20044;-80
2023/05/04 12:31:03;;;;;;;0.30;0.30;;;22.00;81.30;;;;;;6186883;23;19995;-80
2023/05/04 12:33:29;;;;;;;0.60;0.60;;;22.10;87.50;;;;;;6160985;23;20013;-81
2023/05/04 12:35:55;;;;;;;;;;;22.20;87.30;;;;;;6187324;23;20020;-81
2023/05/04 12:38:21;;;;;;;1.23;0.40;;;22.20;80.30;;;;;;6187153;23;19919;-80
2023/05/04 12:40:47;;;;;;;0.20;0.20;;;22.40;87.00;;;;;;6160888;23;20052;-80
2023/05/04 12:43:12;;;;;;;0.50;0.45;;;22.40;84.30;;;;;;6186927;23;20020;-80
2023/05/04 12:45:38;;;;;;;0.38;0.38;;;22.70;84.90;;;;;;6187251;23;20016;-79
2023/05/04 12:48:04;;;;;;;0.90;0.75;;;22.60;84.40;;;;;;6160475;23;20045;-79
2023/05/04 12:50:30;;;;;;;;;;;22.40;83.30;;;;;;6161193;23;20441;-79
2023/05/04 12:52:58;;;;;;;0.40;0.40;;;22.50;78.30;;;;;;6186238;23;20023;-79
2023/05/04 12:55:24;;;;;;;0.52;0.50;;;22.80;84.30;;;;;;6160210;23;20021;-79
2023/05/04 12:57:50;;;;;;;0.55;0.55;;;22.70;83.60;;;;;;6159962;23;20017;-81